createdAt,value
2019-01-30T00:01:42.009Z,86.50
2019-01-30T00:04:09.496Z,86.51
2019-01-30T00:06:37.330Z,86.71
2019-01-30T00:09:11.050Z,86.87
2019-01-30T00:11:38.776Z,86.79
2019-01-30T00:14:10.404Z,87.18
2019-01-30T00:16:38.310Z,87.39
2019-01-30T00:19:06.258Z,86.84
2019-01-30T00:21:33.558Z,86.60
2019-01-30T00:24:01.178Z,86.54
2019-01-30T00:26:28.972Z,86.86
2019-01-30T00:28:56.967Z,87.06
2019-01-30T00:31:24.356Z,87.29
2019-01-30T00:33:51.870Z,86.95
2019-01-30T00:36:19.217Z,86.46
2019-01-30T00:38:47.359Z,86.93
2019-01-30T00:41:14.588Z,87.39
2019-01-30T00:43:42.124Z,87.03
2019-01-30T00:46:09.682Z,87.08
2019-01-30T00:48:37.384Z,87.07
2019-01-30T00:51:04.770Z,86.56
2019-01-30T00:53:32.952Z,86.81
2019-01-30T00:56:00.360Z,87.04
2019-01-30T00:58:27.618Z,87.14
2019-01-30T01:00:58.254Z,86.62
2019-01-30T01:03:25.902Z,87.12
2019-01-30T01:05:53.782Z,86.80
2019-01-30T01:08:21.951Z,86.68
2019-01-30T01:10:49.768Z,86.89
2019-01-30T01:13:17.585Z,86.96
2019-01-30T01:15:44.935Z,86.83
2019-01-30T01:18:12.807Z,87.17
2019-01-30T01:20:40.887Z,87.30
2019-01-30T01:23:08.609Z,87.22
2019-01-30T01:25:36.358Z,87.18
2019-01-30T01:28:04.043Z,87.05
2019-01-30T01:30:31.683Z,86.90
2019-01-30T01:32:59.454Z,86.98
2019-01-30T01:35:26.709Z,86.70
2019-01-30T01:37:54.569Z,86.94
2019-01-30T01:40:22.584Z,87.08
2019-01-30T01:42:50.843Z,87.03
2019-01-30T01:45:21.192Z,87.20
2019-01-30T01:47:48.846Z,87.27
2019-01-30T01:50:18.510Z,87.24
2019-01-30T01:52:46.246Z,87.56
2019-01-30T01:55:13.790Z,87.77
2019-01-30T01:57:41.265Z,87.53
2019-01-30T02:00:13.418Z,87.46
2019-01-30T02:02:40.800Z,87.67
2019-01-30T02:05:11.958Z,87.74
2019-01-30T02:07:39.906Z,87.57
2019-01-30T02:10:09.271Z,87.71
2019-01-30T02:12:36.771Z,87.35
2019-01-30T02:15:07.338Z,87.16
2019-01-30T02:17:35.312Z,87.10
2019-01-30T02:20:04.014Z,87.26
2019-01-30T02:22:31.541Z,87.18
2019-01-30T02:24:59.112Z,87.48
2019-01-30T02:27:26.933Z,86.95
2019-01-30T02:29:55.081Z,87.03
2019-01-30T02:32:22.899Z,87.14
2019-01-30T02:34:50.456Z,86.95
2019-01-30T02:37:17.847Z,86.86
2019-01-30T02:39:45.371Z,86.74
2019-01-30T02:42:13.380Z,86.51
2019-01-30T02:44:40.762Z,86.48
2019-01-30T02:47:08.316Z,86.58
2019-01-30T02:49:36.117Z,86.38
2019-01-30T02:52:04.033Z,86.56
2019-01-30T02:54:31.564Z,86.31
2019-01-30T02:56:58.859Z,86.28
2019-01-30T02:59:26.638Z,86.27
2019-01-30T03:02:10.878Z,85.92
2019-01-30T03:04:38.322Z,86.04
2019-01-30T03:07:05.777Z,85.87
2019-01-30T03:09:33.194Z,85.83
2019-01-30T03:12:00.682Z,85.64
2019-01-30T03:14:28.400Z,85.56
2019-01-30T03:16:56.530Z,85.91
2019-01-30T03:19:24.474Z,85.61
2019-01-30T03:21:52.236Z,85.58
2019-01-30T03:24:19.757Z,85.53
2019-01-30T03:26:47.503Z,85.51
2019-01-30T03:29:15.115Z,85.54
2019-01-30T03:31:42.351Z,85.67
2019-01-30T03:34:09.579Z,85.83
2019-01-30T03:36:37.120Z,85.80
2019-01-30T03:39:06.748Z,85.58
2019-01-30T03:41:34.863Z,85.74
2019-01-30T03:44:03.446Z,85.68
2019-01-30T03:46:30.829Z,85.49
2019-01-30T03:48:58.503Z,86.04
2019-01-30T03:51:25.969Z,86.00
2019-01-30T03:53:54.039Z,85.84
2019-01-30T03:56:21.731Z,85.88
2019-01-30T03:58:49.493Z,85.79
2019-01-30T04:01:26.456Z,85.78
2019-01-30T04:03:46.817Z,85.73
2019-01-30T04:06:14.210Z,85.95
2019-01-30T04:08:41.615Z,86.46
2019-01-30T04:11:09.408Z,85.93
2019-01-30T04:13:37.290Z,85.58
2019-01-30T04:16:05.006Z,86.59
2019-01-30T04:18:32.756Z,86.77
2019-01-30T04:21:00.640Z,86.98
2019-01-30T04:23:27.904Z,86.60
2019-01-30T04:25:55.296Z,86.67
2019-01-30T04:28:22.828Z,87.15
2019-01-30T04:30:50.291Z,87.19
2019-01-30T04:33:21.333Z,87.38
2019-01-30T04:35:49.488Z,87.34
2019-01-30T04:38:17.377Z,87.29
2019-01-30T04:40:45.557Z,87.00
2019-01-30T04:43:13.134Z,86.57
2019-01-30T04:45:40.287Z,86.78
2019-01-30T04:48:07.886Z,86.21
2019-01-30T04:50:35.622Z,85.98
2019-01-30T04:53:03.736Z,85.77
2019-01-30T04:55:31.012Z,85.80
2019-01-30T04:57:58.534Z,85.46
2019-01-30T05:00:26.483Z,85.14
2019-01-30T05:02:54.076Z,85.00
2019-01-30T05:05:21.617Z,85.25
2019-01-30T05:07:48.868Z,85.60
2019-01-30T05:10:16.734Z,85.30
2019-01-30T05:12:44.216Z,85.57
2019-01-30T05:15:14.883Z,85.35
2019-01-30T05:17:42.385Z,84.49
2019-01-30T05:20:11.945Z,84.82
2019-01-30T05:22:39.338Z,86.10
2019-01-30T05:25:07.248Z,84.96
2019-01-30T05:27:34.737Z,84.98
2019-01-30T05:30:02.440Z,84.80
2019-01-30T05:32:29.684Z,84.41
2019-01-30T05:34:57.069Z,84.19
2019-01-30T05:37:24.625Z,84.83
2019-01-30T05:39:52.118Z,83.87
2019-01-30T05:42:19.747Z,83.54
2019-01-30T05:44:47.679Z,83.05
2019-01-30T05:47:16.142Z,83.40
2019-01-30T05:49:43.589Z,83.41
2019-01-30T05:52:10.976Z,84.02
2019-01-30T05:54:38.263Z,83.02
2019-01-30T05:57:05.743Z,83.51
2019-01-30T05:59:33.144Z,82.83
2019-01-30T06:02:11.475Z,82.74
2019-01-30T06:04:30.374Z,83.13
2019-01-30T06:06:57.914Z,82.88
2019-01-30T06:09:25.411Z,82.91
2019-01-30T06:11:53.621Z,83.00
2019-01-30T06:14:21.437Z,83.32
2019-01-30T06:16:49.144Z,82.87
2019-01-30T06:19:16.983Z,81.81
2019-01-30T06:21:44.678Z,81.51
2019-01-30T06:24:12.477Z,81.91
2019-01-30T06:26:40.063Z,81.95
2019-01-30T06:29:07.579Z,81.37
2019-01-30T06:31:35.071Z,81.29
2019-01-30T06:34:02.462Z,81.49
2019-01-30T06:36:29.890Z,81.87
2019-01-30T06:38:57.116Z,81.66
2019-01-30T06:41:25.269Z,82.25
2019-01-30T06:43:53.037Z,81.57
2019-01-30T06:46:20.400Z,81.77
2019-01-30T06:48:47.824Z,82.09
2019-01-30T06:51:15.871Z,82.71
2019-01-30T06:53:43.665Z,82.52
2019-01-30T06:56:11.014Z,82.95
2019-01-30T06:58:38.271Z,83.10
2019-01-30T07:01:05.930Z,83.71
2019-01-30T07:03:35.480Z,83.54
2019-01-30T07:06:03.245Z,83.45
2019-01-30T07:08:30.918Z,83.42
2019-01-30T07:10:58.367Z,83.54
2019-01-30T07:13:25.741Z,83.38
2019-01-30T07:15:52.863Z,83.04
2019-01-30T07:18:20.191Z,83.59
2019-01-30T07:20:48.122Z,83.61
2019-01-30T07:23:15.819Z,83.56
2019-01-30T07:25:43.570Z,83.94
2019-01-30T07:28:10.998Z,83.99
2019-01-30T07:30:39.381Z,84.50
2019-01-30T07:33:07.447Z,84.40
2019-01-30T07:35:35.330Z,85.14
2019-01-30T07:38:03.450Z,85.10
2019-01-30T07:43:13.649Z,85.36
2019-01-30T07:46:00.124Z,85.62
2019-01-30T07:48:29.151Z,85.80
2019-01-30T07:50:57.544Z,85.34
2019-01-30T07:53:26.300Z,85.41
2019-01-30T07:55:54.368Z,85.02
2019-01-30T07:58:22.359Z,85.63
2019-01-30T08:00:50.540Z,85.73
2019-01-30T08:03:18.661Z,86.13
2019-01-30T08:05:46.792Z,86.26
2019-01-30T08:08:14.842Z,86.49
2019-01-30T08:10:51.174Z,86.68
2019-01-30T08:13:20.556Z,86.71
2019-01-30T08:15:48.686Z,86.43
2019-01-30T08:18:17.083Z,86.32
2019-01-30T08:20:45.773Z,86.09
2019-01-30T08:23:13.964Z,86.25
2019-01-30T08:25:41.945Z,86.42
2019-01-30T08:28:10.904Z,86.70
2019-01-30T08:30:39.524Z,86.60
2019-01-30T08:33:08.137Z,86.73
2019-01-30T08:35:36.301Z,86.39
2019-01-30T08:38:22.423Z,86.17
2019-01-30T08:40:50.300Z,86.09
2019-01-30T08:43:18.627Z,86.14
2019-01-30T08:45:46.904Z,86.26
2019-01-30T08:48:15.114Z,85.96
2019-01-30T08:50:43.167Z,85.87
2019-01-30T08:53:11.722Z,85.86
2019-01-30T08:55:40.074Z,86.23
2019-01-30T08:58:08.714Z,85.47
2019-01-30T09:00:37.031Z,85.79
2019-01-30T09:03:14.464Z,85.76
2019-01-30T09:05:36.086Z,86.12
2019-01-30T09:08:04.890Z,85.74
2019-01-30T09:10:32.841Z,85.66
2019-01-30T09:13:01.133Z,85.91
2019-01-30T09:15:29.897Z,85.75
2019-01-30T09:17:57.971Z,85.70
2019-01-30T09:20:26.689Z,85.22
2019-01-30T09:22:54.830Z,84.88
2019-01-30T09:25:28.280Z,85.42
2019-01-30T09:27:56.909Z,85.09
2019-01-30T09:30:39.658Z,85.29
2019-01-30T09:33:10.519Z,85.00
2019-01-30T09:35:38.912Z,84.79
2019-01-30T09:38:13.301Z,84.70
2019-01-30T09:40:41.596Z,84.98
2019-01-30T09:43:11.469Z,85.00
2019-01-30T09:45:39.678Z,84.76
2019-01-30T09:48:11.691Z,84.43
2019-01-30T09:50:40.081Z,84.71
2019-01-30T09:53:31.266Z,84.63
2019-01-30T09:56:01.722Z,84.44
2019-01-30T09:58:34.628Z,84.41
2019-01-30T10:01:09.338Z,84.50
2019-01-30T10:05:01.674Z,84.68
2019-01-30T10:07:11.615Z,84.57
2019-01-30T10:09:39.955Z,84.27
2019-01-30T10:12:29.589Z,84.42
2019-01-30T10:15:08.004Z,84.20
2019-01-30T10:18:15.489Z,83.82
2019-01-30T10:21:17.767Z,84.03
2019-01-30T10:24:13.478Z,84.26
2019-01-30T10:26:36.654Z,84.22
2019-01-30T10:29:05.373Z,84.16
2019-01-30T10:31:39.595Z,83.44
2019-01-30T10:34:07.775Z,83.94
2019-01-30T10:36:35.095Z,84.29
2019-01-30T10:39:06.783Z,83.83
2019-01-30T10:41:35.015Z,83.62
2019-01-30T10:44:02.487Z,83.69
2019-01-30T10:46:30.010Z,83.68
2019-01-30T10:48:57.841Z,83.75
2019-01-30T10:51:25.305Z,83.34
2019-01-30T10:53:52.697Z,82.87
2019-01-30T10:56:20.085Z,83.11
2019-01-30T10:58:47.691Z,82.99
2019-01-30T11:01:15.583Z,83.01
2019-01-30T11:03:43.916Z,83.44
2019-01-30T11:06:11.567Z,83.27
2019-01-30T11:08:38.695Z,82.85
2019-01-30T11:11:07.859Z,83.43
2019-01-30T11:13:35.662Z,83.28
2019-01-30T11:16:03.713Z,83.52
2019-01-30T11:18:31.678Z,83.25
2019-01-30T11:20:59.201Z,82.63
2019-01-30T11:23:27.111Z,83.27
2019-01-30T11:25:56.989Z,82.59
2019-01-30T11:28:24.533Z,83.00
2019-01-30T11:30:51.817Z,83.17
2019-01-30T11:33:19.416Z,83.02
2019-01-30T11:35:46.759Z,83.19
2019-01-30T11:38:14.861Z,83.08
2019-01-30T11:40:42.291Z,82.50
2019-01-30T11:43:10.340Z,82.61
2019-01-30T11:45:43.367Z,82.69
2019-01-30T11:48:10.879Z,83.11
2019-01-30T11:50:40.186Z,82.44
2019-01-30T11:53:08.390Z,82.43
2019-01-30T11:55:35.904Z,82.51
2019-01-30T11:58:04.228Z,82.84
2019-01-30T12:00:37.321Z,82.35
2019-01-30T12:03:05.010Z,83.16
2019-01-30T12:05:35.621Z,83.29
2019-01-30T12:08:04.005Z,82.76
2019-01-30T12:10:31.818Z,82.49
2019-01-30T12:12:59.644Z,82.42
2019-01-30T12:15:27.804Z,82.52
2019-01-30T12:17:55.009Z,82.36
2019-01-30T12:20:22.325Z,82.75
2019-01-30T12:22:49.965Z,82.64
2019-01-30T12:25:19.038Z,83.08
2019-01-30T12:27:50.909Z,83.20
2019-01-30T12:30:21.654Z,82.95
2019-01-30T12:32:49.317Z,83.00
2019-01-30T12:35:17.330Z,82.55
2019-01-30T12:37:45.833Z,82.94
2019-01-30T12:40:15.875Z,83.28
2019-01-30T12:42:43.892Z,82.71
2019-01-30T12:45:22.380Z,82.67
2019-01-30T12:47:50.564Z,82.81
2019-01-30T12:50:18.503Z,82.24
2019-01-30T12:52:45.800Z,83.19
2019-01-30T12:55:13.714Z,82.37
2019-01-30T12:57:41.159Z,82.66
2019-01-30T13:00:22.145Z,82.31
2019-01-30T13:02:50.551Z,82.60
2019-01-30T13:05:20.378Z,81.93
2019-01-30T13:07:47.729Z,82.75
2019-01-30T13:10:15.558Z,82.80
2019-01-30T13:12:43.232Z,82.37
2019-01-30T13:15:14.005Z,82.37
2019-01-30T13:17:42.083Z,82.35
2019-01-30T13:20:13.650Z,82.72
2019-01-30T13:22:41.169Z,82.43
2019-01-30T13:25:09.041Z,81.75
2019-01-30T13:27:36.627Z,81.93
2019-01-30T13:30:10.455Z,81.67
2019-01-30T13:32:37.730Z,82.50
2019-01-30T13:35:09.455Z,81.94
2019-01-30T13:37:36.906Z,81.90
2019-01-30T13:40:09.883Z,82.21
2019-01-30T13:42:37.318Z,82.31
2019-01-30T13:45:07.406Z,82.51
2019-01-30T13:47:34.933Z,82.44
2019-01-30T13:50:04.899Z,82.24
2019-01-30T13:52:32.698Z,82.47
2019-01-30T13:55:00.948Z,82.76
2019-01-30T13:57:28.918Z,82.88
2019-01-30T13:59:56.902Z,83.20
2019-01-30T14:02:24.969Z,83.40
2019-01-30T14:04:59.278Z,83.65
2019-01-30T14:07:21.661Z,83.55
2019-01-30T14:09:49.079Z,83.38
2019-01-30T14:12:16.551Z,83.70
2019-01-30T14:14:43.916Z,83.59
2019-01-30T14:17:11.503Z,83.78
2019-01-30T14:19:39.401Z,83.67
2019-01-30T14:22:07.849Z,83.99
2019-01-30T14:24:35.358Z,83.82
2019-01-30T14:27:03.218Z,83.84
2019-01-30T14:29:30.718Z,84.13
2019-01-30T14:31:58.103Z,83.65
2019-01-30T14:34:25.674Z,83.99
2019-01-30T14:36:53.338Z,84.19
2019-01-30T14:39:20.743Z,83.93
2019-01-30T14:41:48.333Z,83.90
2019-01-30T14:44:15.466Z,84.03
2019-01-30T14:46:42.785Z,84.18
2019-01-30T14:49:10.250Z,84.36
2019-01-30T14:51:37.632Z,84.41
2019-01-30T14:54:05.151Z,84.41
2019-01-30T14:56:32.714Z,84.72
2019-01-30T14:59:00.474Z,84.92
2019-01-30T15:01:27.957Z,85.21
2019-01-30T15:03:55.958Z,85.43
2019-01-30T15:06:23.349Z,85.73
2019-01-30T15:08:50.765Z,85.82
2019-01-30T15:11:18.646Z,86.04
2019-01-30T15:13:46.231Z,86.09
2019-01-30T15:16:14.167Z,86.12
2019-01-30T15:18:41.792Z,85.98
2019-01-30T15:21:09.288Z,86.05
2019-01-30T15:23:37.212Z,86.08
2019-01-30T15:26:05.265Z,86.20
2019-01-30T15:28:32.767Z,86.48
2019-01-30T15:31:00.324Z,86.23
2019-01-30T15:33:27.800Z,86.26
2019-01-30T15:35:55.693Z,86.32
2019-01-30T15:38:23.098Z,86.43
2019-01-30T15:40:50.962Z,86.36
2019-01-30T15:43:18.522Z,86.45
2019-01-30T15:45:45.934Z,86.38
2019-01-30T15:48:13.849Z,86.42
2019-01-30T15:50:42.504Z,86.56
2019-01-30T15:53:13.732Z,86.64
2019-01-30T15:55:41.854Z,86.67
2019-01-30T15:58:10.874Z,86.72
2019-01-30T16:00:48.363Z,86.95
2019-01-30T16:03:16.155Z,86.84
2019-01-30T16:05:45.216Z,86.79
2019-01-30T16:08:12.902Z,86.70
2019-01-30T16:10:40.594Z,87.01
2019-01-30T16:13:08.350Z,86.99
2019-01-30T16:15:46.862Z,86.95
2019-01-30T16:18:14.486Z,86.99
2019-01-30T16:20:42.913Z,87.02
2019-01-30T16:23:10.858Z,87.06
2019-01-30T16:25:38.379Z,87.04
2019-01-30T16:28:06.469Z,86.99
2019-01-30T16:30:33.819Z,87.79
2019-01-30T16:33:01.330Z,87.35
2019-01-30T16:35:29.842Z,87.15
2019-01-30T16:37:57.310Z,87.41
2019-01-30T16:40:25.873Z,87.32
2019-01-30T16:42:54.435Z,87.45
2019-01-30T16:45:24.521Z,87.43
2019-01-30T16:47:52.417Z,87.40
2019-01-30T16:50:20.156Z,87.32
2019-01-30T16:52:47.594Z,87.40
2019-01-30T16:55:16.562Z,87.51
2019-01-30T16:57:44.522Z,87.60
2019-01-30T17:00:28.497Z,87.27
2019-01-30T17:02:56.032Z,87.58
2019-01-30T17:05:24.230Z,87.61
2019-01-30T17:07:52.050Z,87.71
2019-01-30T17:10:19.953Z,87.85
2019-01-30T17:12:47.763Z,87.85
2019-01-30T17:15:18.594Z,88.18
2019-01-30T17:17:46.340Z,87.93
2019-01-30T17:20:23.117Z,87.90
2019-01-30T17:22:50.774Z,87.98
2019-01-30T17:25:19.117Z,88.11
2019-01-30T17:27:46.561Z,88.22
2019-01-30T17:30:18.512Z,87.93
2019-01-30T17:32:46.352Z,87.98
2019-01-30T17:35:14.330Z,87.97
2019-01-30T17:37:42.067Z,87.88
2019-01-30T17:40:14.840Z,87.81
2019-01-30T17:42:42.899Z,87.86
2019-01-30T17:45:10.870Z,87.97
2019-01-30T17:47:38.217Z,88.15
2019-01-30T17:50:07.620Z,88.12
2019-01-30T17:52:35.305Z,88.31
2019-01-30T17:55:04.545Z,88.00
2019-01-30T17:57:32.473Z,88.17
2019-01-30T18:00:00.485Z,88.03
2019-01-30T18:02:27.955Z,88.31
2019-01-30T18:04:55.251Z,88.36
2019-01-30T18:07:22.834Z,88.30
2019-01-30T18:09:53.202Z,88.21
2019-01-30T18:12:20.570Z,88.16
2019-01-30T18:14:48.685Z,88.35
2019-01-30T18:17:16.633Z,88.46
2019-01-30T18:19:44.206Z,88.21
2019-01-30T18:22:11.837Z,88.09
2019-01-30T18:24:39.078Z,88.10
2019-01-30T18:27:06.815Z,88.09
2019-01-30T18:29:34.342Z,88.51
2019-01-30T18:32:02.315Z,88.01
2019-01-30T18:34:30.145Z,87.97
2019-01-30T18:36:57.669Z,88.57
2019-01-30T18:39:25.073Z,88.28
2019-01-30T18:41:52.235Z,87.95
2019-01-30T18:44:20.380Z,88.06
2019-01-30T18:46:47.773Z,88.03
2019-01-30T18:49:15.153Z,88.57
2019-01-30T18:51:42.913Z,88.70
2019-01-30T18:54:10.634Z,88.19
2019-01-30T18:56:42.094Z,88.33
2019-01-30T18:59:09.364Z,88.42
2019-01-30T19:01:37.249Z,88.24
2019-01-30T19:04:05.342Z,88.46
2019-01-30T19:06:32.971Z,88.36
2019-01-30T19:09:00.407Z,88.27
2019-01-30T19:11:28.443Z,88.38
2019-01-30T19:13:55.594Z,88.54
2019-01-30T19:16:23.190Z,88.44
2019-01-30T19:18:50.343Z,88.38
2019-01-30T19:21:17.987Z,88.30
2019-01-30T19:23:45.681Z,88.41
2019-01-30T19:26:13.665Z,88.29
2019-01-30T19:28:41.474Z,88.04
2019-01-30T19:31:08.857Z,88.27
2019-01-30T19:33:36.407Z,88.28
2019-01-30T19:36:05.734Z,88.59
2019-01-30T19:38:33.290Z,88.70
2019-01-30T19:41:01.088Z,88.56
2019-01-30T19:43:28.383Z,88.87
2019-01-30T19:45:55.671Z,88.90
2019-01-30T19:48:23.554Z,89.06
2019-01-30T19:50:51.201Z,88.95
2019-01-30T19:53:19.186Z,89.12
2019-01-30T19:55:47.069Z,89.08
2019-01-30T19:58:14.800Z,89.13
2019-01-30T20:00:45.933Z,89.01
2019-01-30T20:03:20.090Z,89.08
2019-01-30T20:05:48.318Z,88.93
2019-01-30T20:08:15.847Z,88.87
2019-01-30T20:10:44.247Z,88.65
2019-01-30T20:13:11.574Z,88.62
2019-01-30T20:15:39.072Z,88.59
2019-01-30T20:18:07.435Z,88.49
2019-01-30T20:20:35.344Z,88.47
2019-01-30T20:23:03.568Z,88.27
2019-01-30T20:25:33.389Z,88.21
2019-01-30T20:28:00.904Z,88.09
2019-01-30T20:30:28.920Z,87.97
2019-01-30T20:32:56.890Z,88.23
2019-01-30T20:35:24.568Z,87.88
2019-01-30T20:37:52.422Z,87.79
2019-01-30T20:40:22.818Z,87.65
2019-01-30T20:42:52.778Z,87.59
2019-01-30T20:45:20.279Z,87.61
2019-01-30T20:47:48.193Z,87.54
2019-01-30T20:50:19.331Z,87.43
2019-01-30T20:52:47.071Z,87.43
2019-01-30T20:55:16.716Z,87.11
2019-01-30T20:57:44.191Z,87.59
2019-01-30T21:00:19.330Z,87.19
2019-01-30T21:02:46.829Z,86.81
2019-01-30T21:05:14.792Z,87.14
2019-01-30T21:07:41.941Z,87.41
2019-01-30T21:10:14.026Z,86.90
2019-01-30T21:12:41.236Z,87.38
2019-01-30T21:15:11.042Z,87.30
2019-01-30T21:17:38.380Z,87.39
2019-01-30T21:20:06.119Z,87.88
2019-01-30T21:22:33.371Z,87.49
2019-01-30T21:25:00.791Z,87.33
2019-01-30T21:27:28.052Z,87.39
2019-01-30T21:29:55.773Z,87.44
2019-01-30T21:32:23.608Z,87.10
2019-01-30T21:34:51.639Z,87.00
2019-01-30T21:37:20.627Z,87.02
2019-01-30T21:39:47.940Z,87.03
2019-01-30T21:42:15.302Z,86.77
2019-01-30T21:44:43.083Z,86.86
2019-01-30T21:47:11.353Z,86.54
2019-01-30T21:49:39.073Z,86.51
2019-01-30T21:52:06.820Z,86.24
2019-01-30T21:54:34.636Z,86.37
2019-01-30T21:57:02.394Z,86.38
2019-01-30T21:59:31.823Z,86.32
2019-01-30T22:02:08.115Z,86.15
2019-01-30T22:04:28.757Z,86.32
2019-01-30T22:06:56.383Z,86.79
2019-01-30T22:09:23.878Z,86.62
2019-01-30T22:11:51.775Z,86.69
2019-01-30T22:14:19.148Z,86.56
2019-01-30T22:16:47.306Z,86.99
2019-01-30T22:19:14.461Z,86.82
2019-01-30T22:21:41.824Z,86.63
2019-01-30T22:24:09.383Z,86.78
2019-01-30T22:26:36.945Z,86.63
2019-01-30T22:29:04.834Z,86.46
2019-01-30T22:31:32.069Z,86.60
2019-01-30T22:33:59.847Z,86.65
2019-01-30T22:36:27.116Z,86.55
2019-01-30T22:38:54.475Z,86.25
2019-01-30T22:41:23.764Z,86.20
2019-01-30T22:43:51.275Z,86.40
2019-01-30T22:46:18.628Z,86.51
2019-01-30T22:48:46.176Z,86.26
2019-01-30T22:51:13.718Z,86.28
2019-01-30T22:53:41.258Z,86.32
2019-01-30T22:56:09.841Z,86.34
2019-01-30T22:58:37.804Z,86.10
2019-01-30T23:01:41.609Z,86.60
2019-01-30T23:04:46.017Z,86.46
2019-01-30T23:07:57.292Z,86.22
2019-01-30T23:10:56.011Z,86.02
2019-01-30T23:13:58.868Z,86.18
2019-01-30T23:17:40.310Z,86.68
2019-01-30T23:20:38.849Z,86.58
2019-01-30T23:24:08.466Z,86.23
2019-01-30T23:27:09.124Z,86.34
2019-01-30T23:30:35.677Z,85.87
2019-01-30T23:34:29.886Z,86.19
2019-01-30T23:37:39.602Z,85.91
2019-01-30T23:40:50.345Z,86.26
2019-01-30T23:44:24.598Z,86.09
2019-01-30T23:47:51.886Z,86.30
2019-01-30T23:50:55.898Z,86.18
2019-01-30T23:54:50.215Z,86.14
2019-01-30T23:58:03.081Z,86.35
